Terminal Aerodrome Forecast
Issued by NWS Memphis, TN

Home | Current Version | Previous Version | Text Only | Print | Product List | Glossary On
Versions: 1 2 3 4 5 6 7 8 9 10 11 12 13 14 15 16 17 18 19 20 21 22 23 24
000
FTUS44 KMEG 302336
TAFJBR
TAF
KJBR 302336Z 3100/3124 VRB03KT P6SM VCTS SCT040CB OVC100
     FM310300 00000KT P6SM SCT100 BKN250
     FM311000 00000KT P6SM VCTS SCT030CB BKN250
      TEMPO 3110/3113 5SM BR
     FM311500 22008KT P6SM VCTS SCT040CB BKN250=

USA.gov is the U.S. government's official web portal to all federal, state and local government web resources and services.